sensor_id;sensor_type;location;lat;lon;timestamp;P1;durP1;ratioP1;P2;durP2;ratioP2
22435;SDS011;11385;50.822;4.324;2023-05-10T00:02:26;18.48;;;9.30;;
22435;SDS011;11385;50.822;4.324;2023-05-10T00:04:53;16.45;;;8.95;;
22435;SDS011;11385;50.822;4.324;2023-05-10T00:07:19;13.85;;;9.30;;
22435;SDS011;11385;50.822;4.324;2023-05-10T00:09:46;18.20;;;9.65;;
22435;SDS011;11385;50.822;4.324;2023-05-10T00:12:13;17.67;;;9.65;;
22435;SDS011;11385;50.822;4.324;2023-05-10T00:14:40;16.35;;;9.75;;
22435;SDS011;11385;50.822;4.324;2023-05-10T00:17:07;18.48;;;10.10;;
22435;SDS011;11385;50.822;4.324;2023-05-10T00:19:34;19.40;;;9.90;;
22435;SDS011;11385;50.822;4.324;2023-05-10T00:22:01;16.10;;;8.95;;
22435;SDS011;11385;50.822;4.324;2023-05-10T00:24:28;17.57;;;9.80;;
22435;SDS011;11385;50.822;4.324;2023-05-10T00:26:56;17.77;;;9.55;;
22435;SDS011;11385;50.822;4.324;2023-05-10T00:29:23;19.87;;;10.45;;
22435;SDS011;11385;50.822;4.324;2023-05-10T00:31:49;30.12;;;11.22;;
22435;SDS011;11385;50.822;4.324;2023-05-10T00:34:16;19.25;;;10.48;;
22435;SDS011;11385;50.822;4.324;2023-05-10T00:36:43;17.48;;;9.90;;
22435;SDS011;11385;50.822;4.324;2023-05-10T00:39:10;15.18;;;9.60;;
22435;SDS011;11385;50.822;4.324;2023-05-10T00:41:38;20.10;;;10.25;;
22435;SDS011;11385;50.822;4.324;2023-05-10T00:44:04;17.07;;;10.43;;
22435;SDS011;11385;50.822;4.324;2023-05-10T00:46:31;17.73;;;9.70;;
22435;SDS011;11385;50.822;4.324;2023-05-10T00:48:58;20.27;;;10.18;;
22435;SDS011;11385;50.822;4.324;2023-05-10T00:51:25;20.60;;;11.25;;
22435;SDS011;11385;50.822;4.324;2023-05-10T00:53:52;19.77;;;10.53;;
22435;SDS011;11385;50.822;4.324;2023-05-10T00:56:18;18.17;;;11.35;;
22435;SDS011;11385;50.822;4.324;2023-05-10T00:58:47;18.90;;;10.90;;
22435;SDS011;11385;50.822;4.324;2023-05-10T01:01:14;17.50;;;11.00;;
22435;SDS011;11385;50.822;4.324;2023-05-10T01:03:42;17.35;;;11.08;;
22435;SDS011;11385;50.822;4.324;2023-05-10T01:06:09;18.65;;;11.28;;
22435;SDS011;11385;50.822;4.324;2023-05-10T01:08:36;19.50;;;12.58;;
22435;SDS011;11385;50.822;4.324;2023-05-10T01:11:03;15.30;;;10.88;;
22435;SDS011;11385;50.822;4.324;2023-05-10T01:13:32;23.35;;;12.45;;
22435;SDS011;11385;50.822;4.324;2023-05-10T01:16:03;17.55;;;11.22;;
22435;SDS011;11385;50.822;4.324;2023-05-10T01:18:33;20.85;;;12.05;;
22435;SDS011;11385;50.822;4.324;2023-05-10T01:21:07;19.17;;;12.60;;
22435;SDS011;11385;50.822;4.324;2023-05-10T01:23:52;21.70;;;12.40;;
22435;SDS011;11385;50.822;4.324;2023-05-10T01:26:31;19.45;;;11.70;;
22435;SDS011;11385;50.822;4.324;2023-05-10T01:29:10;22.93;;;12.33;;
22435;SDS011;11385;50.822;4.324;2023-05-10T01:31:50;17.90;;;11.22;;
22435;SDS011;11385;50.822;4.324;2023-05-10T01:34:16;28.50;;;16.35;;
22435;SDS011;11385;50.822;4.324;2023-05-10T01:36:48;32.13;;;19.37;;
22435;SDS011;11385;50.822;4.324;2023-05-10T01:39:25;18.15;;;10.93;;
22435;SDS011;11385;50.822;4.324;2023-05-10T01:42:03;18.55;;;12.88;;
22435;SDS011;11385;50.822;4.324;2023-05-10T01:44:48;18.10;;;11.73;;
22435;SDS011;11385;50.822;4.324;2023-05-10T01:47:24;18.85;;;12.10;;
22435;SDS011;11385;50.822;4.324;2023-05-10T01:49:53;22.22;;;14.00;;
22435;SDS011;11385;50.822;4.324;2023-05-10T01:52:25;26.60;;;13.32;;
22435;SDS011;11385;50.822;4.324;2023-05-10T01:55:00;20.52;;;13.83;;
22435;SDS011;11385;50.822;4.324;2023-05-10T01:57:32;18.37;;;12.60;;
22435;SDS011;11385;50.822;4.324;2023-05-10T02:00:02;24.10;;;13.50;;
22435;SDS011;11385;50.822;4.324;2023-05-10T02:02:33;25.15;;;13.50;;
22435;SDS011;11385;50.822;4.324;2023-05-10T02:05:00;23.27;;;13.50;;
22435;SDS011;11385;50.822;4.324;2023-05-10T02:07:28;19.23;;;12.95;;
22435;SDS011;11385;50.822;4.324;2023-05-10T02:09:56;24.67;;;14.10;;
22435;SDS011;11385;50.822;4.324;2023-05-10T02:12:25;18.70;;;12.33;;
22435;SDS011;11385;50.822;4.324;2023-05-10T02:14:55;23.20;;;13.50;;
22435;SDS011;11385;50.822;4.324;2023-05-10T02:17:23;17.98;;;12.60;;
22435;SDS011;11385;50.822;4.324;2023-05-10T02:19:53;20.08;;;12.85;;
22435;SDS011;11385;50.822;4.324;2023-05-10T02:22:21;18.10;;;12.23;;
22435;SDS011;11385;50.822;4.324;2023-05-10T02:24:49;21.07;;;12.95;;
22435;SDS011;11385;50.822;4.324;2023-05-10T02:27:16;22.30;;;12.33;;
22435;SDS011;11385;50.822;4.324;2023-05-10T02:29:46;19.07;;;12.15;;
22435;SDS011;11385;50.822;4.324;2023-05-10T02:32:13;17.27;;;10.68;;
22435;SDS011;11385;50.822;4.324;2023-05-10T02:34:41;16.60;;;10.82;;
22435;SDS011;11385;50.822;4.324;2023-05-10T02:37:12;21.15;;;11.10;;
22435;SDS011;11385;50.822;4.324;2023-05-10T02:39:41;17.12;;;10.13;;
22435;SDS011;11385;50.822;4.324;2023-05-10T02:42:12;17.98;;;10.68;;
22435;SDS011;11385;50.822;4.324;2023-05-10T02:44:45;21.50;;;12.40;;
22435;SDS011;11385;50.822;4.324;2023-05-10T02:47:14;21.77;;;12.65;;
22435;SDS011;11385;50.822;4.324;2023-05-10T02:49:41;19.75;;;10.50;;
22435;SDS011;11385;50.822;4.324;2023-05-10T02:52:08;16.77;;;10.15;;
22435;SDS011;11385;50.822;4.324;2023-05-10T02:54:39;18.05;;;11.83;;
22435;SDS011;11385;50.822;4.324;2023-05-10T02:57:08;20.00;;;10.93;;
22435;SDS011;11385;50.822;4.324;2023-05-10T02:59:40;19.60;;;10.93;;
22435;SDS011;11385;50.822;4.324;2023-05-10T03:02:08;17.95;;;10.75;;
22435;SDS011;11385;50.822;4.324;2023-05-10T03:04:36;18.92;;;9.55;;
22435;SDS011;11385;50.822;4.324;2023-05-10T03:07:02;22.75;;;10.95;;
22435;SDS011;11385;50.822;4.324;2023-05-10T03:09:31;16.87;;;10.60;;
22435;SDS011;11385;50.822;4.324;2023-05-10T03:12:00;15.20;;;9.83;;
22435;SDS011;11385;50.822;4.324;2023-05-10T03:14:49;16.48;;;9.50;;
22435;SDS011;11385;50.822;4.324;2023-05-10T03:17:23;18.25;;;10.18;;
22435;SDS011;11385;50.822;4.324;2023-05-10T03:19:55;17.80;;;10.08;;
22435;SDS011;11385;50.822;4.324;2023-05-10T03:22:25;16.57;;;10.20;;
22435;SDS011;11385;50.822;4.324;2023-05-10T03:24:55;17.50;;;11.73;;
22435;SDS011;11385;50.822;4.324;2023-05-10T03:27:24;19.20;;;11.28;;
22435;SDS011;11385;50.822;4.324;2023-05-10T03:29:53;17.42;;;10.68;;
22435;SDS011;11385;50.822;4.324;2023-05-10T03:32:22;19.70;;;12.47;;
22435;SDS011;11385;50.822;4.324;2023-05-10T03:34:49;20.08;;;12.47;;
22435;SDS011;11385;50.822;4.324;2023-05-10T03:37:16;18.42;;;12.82;;
22435;SDS011;11385;50.822;4.324;2023-05-10T03:39:44;22.05;;;13.68;;
22435;SDS011;11385;50.822;4.324;2023-05-10T03:42:12;22.37;;;14.05;;
22435;SDS011;11385;50.822;4.324;2023-05-10T03:44:40;21.90;;;13.75;;
22435;SDS011;11385;50.822;4.324;2023-05-10T03:47:07;22.00;;;14.58;;
22435;SDS011;11385;50.822;4.324;2023-05-10T03:49:33;26.07;;;14.83;;
22435;SDS011;11385;50.822;4.324;2023-05-10T03:52:00;28.10;;;15.00;;
22435;SDS011;11385;50.822;4.324;2023-05-10T03:54:29;29.48;;;16.80;;
22435;SDS011;11385;50.822;4.324;2023-05-10T03:56:56;27.35;;;15.25;;
22435;SDS011;11385;50.822;4.324;2023-05-10T03:59:24;25.65;;;15.35;;
22435;SDS011;11385;50.822;4.324;2023-05-10T04:01:51;24.87;;;15.32;;
22435;SDS011;11385;50.822;4.324;2023-05-10T04:04:18;27.27;;;15.88;;
22435;SDS011;11385;50.822;4.324;2023-05-10T04:06:46;23.80;;;15.55;;
22435;SDS011;11385;50.822;4.324;2023-05-10T04:09:14;28.00;;;15.93;;
22435;SDS011;11385;50.822;4.324;2023-05-10T04:11:42;21.33;;;14.93;;
22435;SDS011;11385;50.822;4.324;2023-05-10T04:14:10;27.95;;;16.02;;
22435;SDS011;11385;50.822;4.324;2023-05-10T04:16:38;28.50;;;15.80;;
22435;SDS011;11385;50.822;4.324;2023-05-10T04:19:05;24.23;;;16.20;;
22435;SDS011;11385;50.822;4.324;2023-05-10T04:21:34;26.50;;;16.82;;
22435;SDS011;11385;50.822;4.324;2023-05-10T04:24:03;25.50;;;16.75;;
22435;SDS011;11385;50.822;4.324;2023-05-10T04:26:31;26.02;;;17.20;;
22435;SDS011;11385;50.822;4.324;2023-05-10T04:28:58;27.37;;;17.45;;
22435;SDS011;11385;50.822;4.324;2023-05-10T04:31:25;27.55;;;16.57;;
22435;SDS011;11385;50.822;4.324;2023-05-10T04:33:53;28.73;;;17.45;;
22435;SDS011;11385;50.822;4.324;2023-05-10T04:36:20;29.27;;;18.80;;
22435;SDS011;11385;50.822;4.324;2023-05-10T04:38:47;30.62;;;18.50;;
22435;SDS011;11385;50.822;4.324;2023-05-10T04:41:15;33.35;;;19.60;;
22435;SDS011;11385;50.822;4.324;2023-05-10T04:43:41;31.12;;;19.02;;
22435;SDS011;11385;50.822;4.324;2023-05-10T04:46:08;30.62;;;19.70;;
22435;SDS011;11385;50.822;4.324;2023-05-10T04:48:35;29.48;;;17.37;;
22435;SDS011;11385;50.822;4.324;2023-05-10T04:51:01;24.72;;;15.58;;
22435;SDS011;11385;50.822;4.324;2023-05-10T04:53:32;19.57;;;12.90;;
22435;SDS011;11385;50.822;4.324;2023-05-10T04:55:58;23.73;;;13.90;;
22435;SDS011;11385;50.822;4.324;2023-05-10T04:58:25;23.05;;;13.68;;
22435;SDS011;11385;50.822;4.324;2023-05-10T05:00:53;20.17;;;12.58;;
22435;SDS011;11385;50.822;4.324;2023-05-10T05:03:20;17.95;;;11.88;;
22435;SDS011;11385;50.822;4.324;2023-05-10T05:05:47;24.12;;;12.50;;
22435;SDS011;11385;50.822;4.324;2023-05-10T05:08:14;21.80;;;11.70;;
22435;SDS011;11385;50.822;4.324;2023-05-10T05:10:41;23.52;;;13.85;;
22435;SDS011;11385;50.822;4.324;2023-05-10T05:13:07;20.08;;;14.18;;
22435;SDS011;11385;50.822;4.324;2023-05-10T05:15:34;24.98;;;14.03;;
22435;SDS011;11385;50.822;4.324;2023-05-10T05:18:01;23.92;;;13.28;;
22435;SDS011;11385;50.822;4.324;2023-05-10T05:20:31;24.02;;;14.20;;
22435;SDS011;11385;50.822;4.324;2023-05-10T05:23:00;20.48;;;13.83;;
22435;SDS011;11385;50.822;4.324;2023-05-10T05:25:30;23.35;;;14.00;;
22435;SDS011;11385;50.822;4.324;2023-05-10T05:27:59;24.75;;;14.55;;
22435;SDS011;11385;50.822;4.324;2023-05-10T05:30:26;29.18;;;14.40;;
22435;SDS011;11385;50.822;4.324;2023-05-10T05:32:53;21.05;;;14.07;;
22435;SDS011;11385;50.822;4.324;2023-05-10T05:35:20;40.88;;;26.15;;
22435;SDS011;11385;50.822;4.324;2023-05-10T05:37:46;27.00;;;16.10;;
22435;SDS011;11385;50.822;4.324;2023-05-10T05:40:14;28.35;;;16.12;;
22435;SDS011;11385;50.822;4.324;2023-05-10T05:42:40;26.17;;;15.38;;
22435;SDS011;11385;50.822;4.324;2023-05-10T05:45:07;33.55;;;16.50;;
22435;SDS011;11385;50.822;4.324;2023-05-10T05:47:37;30.82;;;17.15;;
22435;SDS011;11385;50.822;4.324;2023-05-10T05:50:04;34.03;;;17.87;;
22435;SDS011;11385;50.822;4.324;2023-05-10T05:52:31;29.18;;;16.93;;
22435;SDS011;11385;50.822;4.324;2023-05-10T05:54:58;30.20;;;17.37;;
22435;SDS011;11385;50.822;4.324;2023-05-10T05:57:25;30.57;;;14.53;;
22435;SDS011;11385;50.822;4.324;2023-05-10T05:59:52;30.55;;;13.98;;
22435;SDS011;11385;50.822;4.324;2023-05-10T06:02:19;29.70;;;13.80;;
22435;SDS011;11385;50.822;4.324;2023-05-10T06:04:46;26.42;;;13.70;;
22435;SDS011;11385;50.822;4.324;2023-05-10T06:07:13;45.23;;;31.52;;
22435;SDS011;11385;50.822;4.324;2023-05-10T06:09:39;35.95;;;25.23;;
22435;SDS011;11385;50.822;4.324;2023-05-10T06:12:07;23.70;;;13.40;;
22435;SDS011;11385;50.822;4.324;2023-05-10T06:14:33;27.40;;;13.95;;
22435;SDS011;11385;50.822;4.324;2023-05-10T06:17:00;24.60;;;11.63;;
22435;SDS011;11385;50.822;4.324;2023-05-10T06:19:29;22.25;;;12.25;;
22435;SDS011;11385;50.822;4.324;2023-05-10T06:21:56;22.62;;;9.85;;
22435;SDS011;11385;50.822;4.324;2023-05-10T06:24:23;18.12;;;10.53;;
22435;SDS011;11385;50.822;4.324;2023-05-10T06:26:49;20.12;;;9.58;;
22435;SDS011;11385;50.822;4.324;2023-05-10T06:29:16;13.62;;;8.70;;
22435;SDS011;11385;50.822;4.324;2023-05-10T06:31:43;17.45;;;9.20;;
22435;SDS011;11385;50.822;4.324;2023-05-10T06:34:12;13.40;;;8.28;;
22435;SDS011;11385;50.822;4.324;2023-05-10T06:36:39;14.18;;;9.28;;
22435;SDS011;11385;50.822;4.324;2023-05-10T06:39:06;14.93;;;8.08;;
22435;SDS011;11385;50.822;4.324;2023-05-10T06:41:33;14.68;;;8.40;;
22435;SDS011;11385;50.822;4.324;2023-05-10T06:44:00;15.32;;;9.33;;
22435;SDS011;11385;50.822;4.324;2023-05-10T06:46:27;18.02;;;8.65;;
22435;SDS011;11385;50.822;4.324;2023-05-10T06:48:54;14.23;;;9.30;;
22435;SDS011;11385;50.822;4.324;2023-05-10T06:51:21;14.33;;;8.90;;
22435;SDS011;11385;50.822;4.324;2023-05-10T06:53:48;14.10;;;9.55;;
22435;SDS011;11385;50.822;4.324;2023-05-10T06:56:15;14.87;;;9.10;;
22435;SDS011;11385;50.822;4.324;2023-05-10T06:58:41;13.08;;;8.85;;
22435;SDS011;11385;50.822;4.324;2023-05-10T07:01:08;20.35;;;10.18;;
22435;SDS011;11385;50.822;4.324;2023-05-10T07:03:35;15.78;;;10.00;;
22435;SDS011;11385;50.822;4.324;2023-05-10T07:06:02;21.90;;;11.10;;
22435;SDS011;11385;50.822;4.324;2023-05-10T07:08:30;17.02;;;10.32;;
22435;SDS011;11385;50.822;4.324;2023-05-10T07:11:00;18.20;;;9.75;;
22435;SDS011;11385;50.822;4.324;2023-05-10T07:13:30;17.73;;;10.27;;
22435;SDS011;11385;50.822;4.324;2023-05-10T07:15:57;20.15;;;11.45;;
22435;SDS011;11385;50.822;4.324;2023-05-10T07:18:24;18.75;;;10.55;;
22435;SDS011;11385;50.822;4.324;2023-05-10T07:20:51;17.25;;;9.90;;
22435;SDS011;11385;50.822;4.324;2023-05-10T07:23:18;22.80;;;10.75;;
22435;SDS011;11385;50.822;4.324;2023-05-10T07:25:46;23.40;;;10.10;;
22435;SDS011;11385;50.822;4.324;2023-05-10T07:28:15;14.18;;;9.05;;
22435;SDS011;11385;50.822;4.324;2023-05-10T07:30:42;17.98;;;10.28;;
22435;SDS011;11385;50.822;4.324;2023-05-10T07:33:10;19.82;;;10.75;;
22435;SDS011;11385;50.822;4.324;2023-05-10T07:35:38;22.50;;;11.10;;
22435;SDS011;11385;50.822;4.324;2023-05-10T07:38:05;17.35;;;9.83;;
22435;SDS011;11385;50.822;4.324;2023-05-10T07:40:32;17.80;;;9.58;;
22435;SDS011;11385;50.822;4.324;2023-05-10T07:42:58;20.10;;;10.13;;
22435;SDS011;11385;50.822;4.324;2023-05-10T07:45:27;15.43;;;8.28;;
22435;SDS011;11385;50.822;4.324;2023-05-10T07:47:54;12.85;;;7.55;;
22435;SDS011;11385;50.822;4.324;2023-05-10T07:50:22;12.58;;;7.53;;
22435;SDS011;11385;50.822;4.324;2023-05-10T07:52:48;13.13;;;8.45;;
22435;SDS011;11385;50.822;4.324;2023-05-10T07:55:16;11.08;;;7.20;;
22435;SDS011;11385;50.822;4.324;2023-05-10T07:57:46;18.70;;;12.90;;
22435;SDS011;11385;50.822;4.324;2023-05-10T08:00:13;16.95;;;8.35;;
22435;SDS011;11385;50.822;4.324;2023-05-10T08:02:43;20.85;;;15.48;;
22435;SDS011;11385;50.822;4.324;2023-05-10T08:05:10;12.43;;;6.60;;
22435;SDS011;11385;50.822;4.324;2023-05-10T08:07:37;7.35;;;5.55;;
22435;SDS011;11385;50.822;4.324;2023-05-10T08:10:05;9.98;;;5.12;;
22435;SDS011;11385;50.822;4.324;2023-05-10T08:12:33;9.08;;;5.25;;
22435;SDS011;11385;50.822;4.324;2023-05-10T08:15:01;12.07;;;5.55;;
22435;SDS011;11385;50.822;4.324;2023-05-10T08:17:30;9.00;;;4.65;;
22435;SDS011;11385;50.822;4.324;2023-05-10T08:20:00;8.95;;;4.70;;
22435;SDS011;11385;50.822;4.324;2023-05-10T08:22:27;7.03;;;4.80;;
22435;SDS011;11385;50.822;4.324;2023-05-10T08:24:53;6.42;;;4.33;;
22435;SDS011;11385;50.822;4.324;2023-05-10T08:27:20;9.55;;;5.05;;
22435;SDS011;11385;50.822;4.324;2023-05-10T08:29:47;7.17;;;4.72;;
22435;SDS011;11385;50.822;4.324;2023-05-10T08:32:14;8.33;;;4.65;;
22435;SDS011;11385;50.822;4.324;2023-05-10T08:34:40;9.00;;;5.20;;
22435;SDS011;11385;50.822;4.324;2023-05-10T08:37:07;8.15;;;5.25;;
22435;SDS011;11385;50.822;4.324;2023-05-10T08:39:34;7.58;;;4.20;;
22435;SDS011;11385;50.822;4.324;2023-05-10T08:42:03;7.87;;;4.33;;
22435;SDS011;11385;50.822;4.324;2023-05-10T08:44:32;7.78;;;4.37;;
22435;SDS011;11385;50.822;4.324;2023-05-10T08:47:02;9.88;;;5.78;;
22435;SDS011;11385;50.822;4.324;2023-05-10T08:49:31;8.33;;;5.87;;
22435;SDS011;11385;50.822;4.324;2023-05-10T08:51:59;9.78;;;5.85;;
22435;SDS011;11385;50.822;4.324;2023-05-10T08:54:29;9.03;;;5.35;;
22435;SDS011;11385;50.822;4.324;2023-05-10T08:56:58;9.93;;;5.47;;
22435;SDS011;11385;50.822;4.324;2023-05-10T08:59:25;10.55;;;5.75;;
22435;SDS011;11385;50.822;4.324;2023-05-10T09:01:53;11.08;;;6.10;;
22435;SDS011;11385;50.822;4.324;2023-05-10T09:04:21;8.25;;;5.80;;
22435;SDS011;11385;50.822;4.324;2023-05-10T09:06:49;10.78;;;6.65;;
22435;SDS011;11385;50.822;4.324;2023-05-10T09:09:17;10.08;;;6.37;;
22435;SDS011;11385;50.822;4.324;2023-05-10T09:11:44;10.23;;;6.33;;
22435;SDS011;11385;50.822;4.324;2023-05-10T09:14:11;8.25;;;5.80;;
22435;SDS011;11385;50.822;4.324;2023-05-10T09:16:40;10.70;;;6.25;;
22435;SDS011;11385;50.822;4.324;2023-05-10T09:19:07;9.60;;;5.37;;
22435;SDS011;11385;50.822;4.324;2023-05-10T09:21:35;9.35;;;5.53;;
22435;SDS011;11385;50.822;4.324;2023-05-10T09:24:04;8.28;;;5.60;;
22435;SDS011;11385;50.822;4.324;2023-05-10T09:26:31;9.25;;;5.55;;
22435;SDS011;11385;50.822;4.324;2023-05-10T09:28:59;10.13;;;5.83;;
22435;SDS011;11385;50.822;4.324;2023-05-10T09:32:00;8.85;;;5.87;;
22435;SDS011;11385;50.822;4.324;2023-05-10T09:34:16;9.43;;;5.67;;
22435;SDS011;11385;50.822;4.324;2023-05-10T09:39:20;8.65;;;5.97;;
22435;SDS011;11385;50.822;4.324;2023-05-10T09:41:46;10.38;;;5.95;;
22435;SDS011;11385;50.822;4.324;2023-05-10T09:44:16;8.90;;;6.08;;
22435;SDS011;11385;50.822;4.324;2023-05-10T09:46:48;9.70;;;6.80;;
22435;SDS011;11385;50.822;4.324;2023-05-10T09:49:16;8.70;;;6.37;;
22435;SDS011;11385;50.822;4.324;2023-05-10T09:51:44;10.72;;;6.95;;
22435;SDS011;11385;50.822;4.324;2023-05-10T09:54:13;9.80;;;6.92;;
22435;SDS011;11385;50.822;4.324;2023-05-10T09:56:41;8.90;;;6.70;;
22435;SDS011;11385;50.822;4.324;2023-05-10T09:59:10;11.00;;;7.42;;
22435;SDS011;11385;50.822;4.324;2023-05-10T10:01:38;10.93;;;8.13;;
22435;SDS011;11385;50.822;4.324;2023-05-10T10:04:07;11.18;;;8.00;;
22435;SDS011;11385;50.822;4.324;2023-05-10T10:06:36;13.75;;;7.65;;
22435;SDS011;11385;50.822;4.324;2023-05-10T10:09:05;11.08;;;7.83;;
22435;SDS011;11385;50.822;4.324;2023-05-10T10:11:34;9.88;;;7.80;;
22435;SDS011;11385;50.822;4.324;2023-05-10T10:14:02;9.60;;;7.45;;
22435;SDS011;11385;50.822;4.324;2023-05-10T10:16:31;9.58;;;7.37;;
22435;SDS011;11385;50.822;4.324;2023-05-10T10:18:58;11.03;;;7.33;;
22435;SDS011;11385;50.822;4.324;2023-05-10T10:21:25;10.53;;;7.50;;
22435;SDS011;11385;50.822;4.324;2023-05-10T10:23:52;10.15;;;6.50;;
22435;SDS011;11385;50.822;4.324;2023-05-10T10:26:20;9.23;;;6.35;;
22435;SDS011;11385;50.822;4.324;2023-05-10T10:28:49;8.63;;;6.00;;
22435;SDS011;11385;50.822;4.324;2023-05-10T10:32:30;10.38;;;6.60;;
22435;SDS011;11385;50.822;4.324;2023-05-10T10:34:09;12.75;;;7.30;;
22435;SDS011;11385;50.822;4.324;2023-05-10T10:36:40;10.40;;;7.17;;
22435;SDS011;11385;50.822;4.324;2023-05-10T10:39:11;10.32;;;7.15;;
22435;SDS011;11385;50.822;4.324;2023-05-10T10:41:39;11.22;;;7.72;;
22435;SDS011;11385;50.822;4.324;2023-05-10T10:50:05;11.83;;;7.95;;
22435;SDS011;11385;50.822;4.324;2023-05-10T10:52:36;44.90;;;34.80;;
22435;SDS011;11385;50.822;4.324;2023-05-10T10:55:08;33.43;;;26.97;;
22435;SDS011;11385;50.822;4.324;2023-05-10T10:57:44;12.88;;;7.47;;
22435;SDS011;11385;50.822;4.324;2023-05-10T11:00:17;11.18;;;7.20;;
22435;SDS011;11385;50.822;4.324;2023-05-10T11:02:48;12.93;;;7.55;;
22435;SDS011;11385;50.822;4.324;2023-05-10T11:05:23;10.23;;;7.05;;
22435;SDS011;11385;50.822;4.324;2023-05-10T11:07:51;11.20;;;6.75;;
22435;SDS011;11385;50.822;4.324;2023-05-10T11:10:20;11.78;;;6.65;;
22435;SDS011;11385;50.822;4.324;2023-05-10T11:12:52;13.10;;;8.70;;
22435;SDS011;11385;50.822;4.324;2023-05-10T11:15:28;11.28;;;8.03;;
22435;SDS011;11385;50.822;4.324;2023-05-10T11:17:58;9.60;;;6.53;;
22435;SDS011;11385;50.822;4.324;2023-05-10T11:20:27;9.78;;;7.40;;
22435;SDS011;11385;50.822;4.324;2023-05-10T11:25:26;9.65;;;6.60;;
22435;SDS011;11385;50.822;4.324;2023-05-10T11:27:53;8.87;;;6.17;;
22435;SDS011;11385;50.822;4.324;2023-05-10T11:30:21;10.18;;;6.87;;
22435;SDS011;11385;50.822;4.324;2023-05-10T11:32:49;9.18;;;6.60;;
22435;SDS011;11385;50.822;4.324;2023-05-10T11:35:16;8.48;;;6.20;;
22435;SDS011;11385;50.822;4.324;2023-05-10T11:37:43;9.90;;;6.70;;
22435;SDS011;11385;50.822;4.324;2023-05-10T11:40:13;8.33;;;6.55;;
22435;SDS011;11385;50.822;4.324;2023-05-10T11:42:40;15.03;;;11.65;;
22435;SDS011;11385;50.822;4.324;2023-05-10T11:45:07;25.08;;;21.40;;
22435;SDS011;11385;50.822;4.324;2023-05-10T11:47:34;9.55;;;7.72;;
22435;SDS011;11385;50.822;4.324;2023-05-10T11:50:04;8.83;;;5.95;;
22435;SDS011;11385;50.822;4.324;2023-05-10T11:52:35;8.90;;;6.55;;
22435;SDS011;11385;50.822;4.324;2023-05-10T11:55:03;8.13;;;6.10;;
22435;SDS011;11385;50.822;4.324;2023-05-10T11:57:30;9.85;;;6.58;;
22435;SDS011;11385;50.822;4.324;2023-05-10T11:59:57;7.58;;;6.00;;
22435;SDS011;11385;50.822;4.324;2023-05-10T12:02:24;8.58;;;5.83;;
22435;SDS011;11385;50.822;4.324;2023-05-10T12:04:51;8.35;;;6.50;;
22435;SDS011;11385;50.822;4.324;2023-05-10T12:07:18;9.45;;;6.37;;
22435;SDS011;11385;50.822;4.324;2023-05-10T12:10:01;9.70;;;6.90;;
22435;SDS011;11385;50.822;4.324;2023-05-10T12:12:19;7.00;;;5.35;;
22435;SDS011;11385;50.822;4.324;2023-05-10T12:14:48;9.18;;;6.05;;
22435;SDS011;11385;50.822;4.324;2023-05-10T12:17:16;10.03;;;6.50;;
22435;SDS011;11385;50.822;4.324;2023-05-10T12:19:43;9.30;;;6.10;;
22435;SDS011;11385;50.822;4.324;2023-05-10T12:22:09;9.30;;;6.30;;
22435;SDS011;11385;50.822;4.324;2023-05-10T12:24:36;12.40;;;7.22;;
22435;SDS011;11385;50.822;4.324;2023-05-10T12:27:04;10.72;;;7.78;;
22435;SDS011;11385;50.822;4.324;2023-05-10T12:29:33;35.95;;;28.77;;
22435;SDS011;11385;50.822;4.324;2023-05-10T12:32:00;17.77;;;14.78;;
22435;SDS011;11385;50.822;4.324;2023-05-10T12:34:30;9.55;;;5.80;;
22435;SDS011;11385;50.822;4.324;2023-05-10T12:39:25;7.17;;;5.75;;
22435;SDS011;11385;50.822;4.324;2023-05-10T12:41:52;9.40;;;6.08;;
22435;SDS011;11385;50.822;4.324;2023-05-10T12:44:19;7.87;;;6.50;;
22435;SDS011;11385;50.822;4.324;2023-05-10T12:46:46;7.70;;;5.60;;
22435;SDS011;11385;50.822;4.324;2023-05-10T12:49:13;6.62;;;4.47;;
22435;SDS011;11385;50.822;4.324;2023-05-10T12:51:40;6.92;;;5.10;;
22435;SDS011;11385;50.822;4.324;2023-05-10T12:54:06;8.35;;;6.00;;
22435;SDS011;11385;50.822;4.324;2023-05-10T12:56:33;9.83;;;5.87;;
22435;SDS011;11385;50.822;4.324;2023-05-10T12:59:00;7.30;;;5.22;;
22435;SDS011;11385;50.822;4.324;2023-05-10T13:01:27;6.10;;;4.50;;
22435;SDS011;11385;50.822;4.324;2023-05-10T13:03:54;7.30;;;4.85;;
22435;SDS011;11385;50.822;4.324;2023-05-10T13:06:21;6.25;;;4.17;;
22435;SDS011;11385;50.822;4.324;2023-05-10T13:08:47;5.58;;;3.77;;
22435;SDS011;11385;50.822;4.324;2023-05-10T13:11:14;7.55;;;4.80;;
22435;SDS011;11385;50.822;4.324;2023-05-10T13:13:42;6.42;;;4.15;;
22435;SDS011;11385;50.822;4.324;2023-05-10T13:16:10;7.45;;;4.78;;
22435;SDS011;11385;50.822;4.324;2023-05-10T13:18:37;5.72;;;4.58;;
22435;SDS011;11385;50.822;4.324;2023-05-10T13:21:04;7.08;;;4.58;;
22435;SDS011;11385;50.822;4.324;2023-05-10T13:23:32;8.65;;;5.25;;
22435;SDS011;11385;50.822;4.324;2023-05-10T13:26:01;7.45;;;5.67;;
22435;SDS011;11385;50.822;4.324;2023-05-10T13:28:27;8.28;;;5.78;;
22435;SDS011;11385;50.822;4.324;2023-05-10T13:30:55;9.80;;;7.17;;
22435;SDS011;11385;50.822;4.324;2023-05-10T13:33:21;9.10;;;6.60;;
22435;SDS011;11385;50.822;4.324;2023-05-10T13:35:50;10.68;;;6.25;;
22435;SDS011;11385;50.822;4.324;2023-05-10T13:38:16;6.47;;;5.17;;
22435;SDS011;11385;50.822;4.324;2023-05-10T13:40:43;9.05;;;5.47;;
22435;SDS011;11385;50.822;4.324;2023-05-10T13:43:10;9.90;;;6.03;;
22435;SDS011;11385;50.822;4.324;2023-05-10T13:45:36;7.20;;;5.40;;
22435;SDS011;11385;50.822;4.324;2023-05-10T13:48:04;6.75;;;5.65;;
22435;SDS011;11385;50.822;4.324;2023-05-10T13:50:32;9.98;;;6.50;;
22435;SDS011;11385;50.822;4.324;2023-05-10T13:52:59;9.50;;;7.03;;
22435;SDS011;11385;50.822;4.324;2023-05-10T13:55:26;9.80;;;7.55;;
22435;SDS011;11385;50.822;4.324;2023-05-10T13:57:53;10.43;;;7.85;;
22435;SDS011;11385;50.822;4.324;2023-05-10T14:00:19;10.30;;;7.45;;
22435;SDS011;11385;50.822;4.324;2023-05-10T14:02:46;13.48;;;8.33;;
22435;SDS011;11385;50.822;4.324;2023-05-10T14:05:13;11.15;;;7.90;;
22435;SDS011;11385;50.822;4.324;2023-05-10T14:07:40;13.38;;;9.53;;
22435;SDS011;11385;50.822;4.324;2023-05-10T14:10:07;11.35;;;8.53;;
22435;SDS011;11385;50.822;4.324;2023-05-10T14:12:34;12.47;;;8.43;;
22435;SDS011;11385;50.822;4.324;2023-05-10T14:15:00;12.35;;;8.70;;
22435;SDS011;11385;50.822;4.324;2023-05-10T14:17:28;12.07;;;9.70;;
22435;SDS011;11385;50.822;4.324;2023-05-10T14:19:56;10.38;;;8.55;;
22435;SDS011;11385;50.822;4.324;2023-05-10T14:22:22;14.45;;;9.00;;
22435;SDS011;11385;50.822;4.324;2023-05-10T14:25:05;11.33;;;8.33;;
22435;SDS011;11385;50.822;4.324;2023-05-10T14:27:45;8.88;;;7.25;;
22435;SDS011;11385;50.822;4.324;2023-05-10T14:30:12;11.15;;;9.73;;
22435;SDS011;11385;50.822;4.324;2023-05-10T14:32:40;11.50;;;8.18;;
22435;SDS011;11385;50.822;4.324;2023-05-10T14:35:07;13.72;;;8.75;;
22435;SDS011;11385;50.822;4.324;2023-05-10T14:37:34;10.60;;;8.30;;
22435;SDS011;11385;50.822;4.324;2023-05-10T14:40:02;12.33;;;9.10;;
22435;SDS011;11385;50.822;4.324;2023-05-10T14:42:31;10.75;;;8.85;;
22435;SDS011;11385;50.822;4.324;2023-05-10T14:48:06;11.55;;;9.38;;
22435;SDS011;11385;50.822;4.324;2023-05-10T14:50:34;16.30;;;10.23;;
22435;SDS011;11385;50.822;4.324;2023-05-10T14:53:01;16.07;;;9.93;;
22435;SDS011;11385;50.822;4.324;2023-05-10T14:55:28;10.65;;;9.00;;